Terminal Aerodrome Forecast
Issued by NWS Jackson, MS

Home | Current Version | Previous Version | Text Only | Print | Product List | Glossary On
Versions: 1 2 3 4 5 6 7 8 9 10 11 12 13 14
091
FTUS44 KMEG 271734
TAFTUP
TAF
KTUP 271734Z 2718/2818 29005KT P6SM VCSH SCT040
     FM280000 25005KT 6SM -SHRA VCTS SCT040CB
      TEMPO 2800/2804 VRB10G18KT 4SM TSRA BKN030CB
     FM280400 23005KT 5SM SHRA VCTS BKN040CB
     FM281300 24008KT 4SM -SHRA BR BKN030=

USA.gov is the U.S. government's official web portal to all federal, state and local government web resources and services.